Time;durP1;ratioP1;P1;durP2;ratioP2;P2;SDS_P1;SDS_P2;PMS_P1;PMS_P2;Temp;Humidity;BMP_temperature;BMP_pressure;BME280_temperature;BME280_humidity;BME280_pressure;Samples;Min_cycle;Max_cycle;Signal;HPM_P1;HPM_P2
2021/12/16 00:09:18;;;;;;;;;;;128.10;2252.80;;;;;;5074176;28;19951;-76
2021/12/16 00:33:19;;;;;;;;;;;103.30;2227.20;;;;;;5042364;28;19905;-75
2021/12/16 00:35:49;;;;;;;;;;;103.20;2227.20;;;;;;5043416;28;19917;-74
2021/12/16 00:38:15;;;;;;;;;;;103.20;2227.20;;;;;;5040228;28;20004;-76
2021/12/16 00:40:42;;;;;;;;;;;103.10;2227.20;;;;;;5041627;28;20291;-76
2021/12/16 00:43:17;;;;;;;;;;;103.00;2227.20;;;;;;5032118;28;19919;-74
2021/12/16 00:55:54;;;;;;;;;;;103.20;2227.20;;;;;;5042292;28;19920;-75
2021/12/16 00:58:24;;;;;;;;;;;103.10;2227.20;;;;;;5041319;28;19911;-77
2021/12/16 01:01:01;;;;;;;;;;;103.10;2227.20;;;;;;5042169;28;19913;-76
2021/12/16 01:03:38;;;;;;;;;;;103.00;2227.20;;;;;;5039469;28;19909;-76
2021/12/16 01:06:21;;;;;;;;;;;103.10;2227.20;;;;;;5040070;28;19987;-75
2021/12/16 01:50:04;;;;;;;;;;;103.00;2227.20;;;;;;4985116;28;20311;-75
2021/12/16 01:55:11;;;;;;;;;;;103.00;2227.20;;;;;;5031021;28;19959;-75
2021/12/16 01:57:42;;;;;;;;;;;103.00;2227.20;;;;;;5043965;28;19909;-76
2021/12/16 02:00:14;;;;;;;;;;;103.00;2227.20;;;;;;5046638;28;19971;-76
2021/12/16 02:02:45;;;;;;;;;;;102.90;2227.20;;;;;;5020098;28;20004;-75
2021/12/16 02:05:25;;;;;;;;;;;102.80;2227.20;;;;;;5019148;28;19909;-76
2021/12/16 02:10:36;;;;;;;;;;;103.00;2227.20;;;;;;5045435;28;19959;-75
2021/12/16 02:32:11;;;;;;;;;;;102.90;2227.20;;;;;;5072004;28;19910;-76
2021/12/16 02:35:00;;;;;;;;;;;103.10;2227.20;;;;;;5072659;28;20404;-77
2021/12/16 02:37:30;;;;;;;;;;;103.00;2227.20;;;;;;5072544;28;19950;-75
2021/12/16 02:39:56;;;;;;;;;;;103.00;2227.20;;;;;;5072520;28;19991;-74
2021/12/16 02:42:25;;;;;;;;;;;103.10;2227.20;;;;;;5073966;28;20396;-77
2021/12/16 02:50:23;;;;;;;;;;;103.00;2227.20;;;;;;5064726;28;19955;-75
2021/12/16 02:52:49;;;;;;;;;;;103.00;2227.20;;;;;;5053542;28;20457;-75
2021/12/16 02:55:16;;;;;;;;;;;103.00;2227.20;;;;;;5054836;28;20406;-75
2021/12/16 02:57:51;;;;;;;;;;;103.10;2227.20;;;;;;5053404;28;20361;-77
2021/12/16 03:00:17;;;;;;;;;;;103.00;2227.20;;;;;;5071146;28;19936;-75
2021/12/16 03:02:44;;;;;;;;;;;102.90;2227.20;;;;;;5072238;28;19954;-77
2021/12/16 03:05:11;;;;;;;;;;;102.90;2227.20;;;;;;5072036;28;19908;-75
2021/12/16 03:07:37;;;;;;;;;;;103.10;2227.20;;;;;;5072442;28;19904;-78
2021/12/16 03:12:50;;;;;;;;;;;103.10;2227.20;;;;;;5059738;28;19983;-75
2021/12/16 03:18:27;;;;;;;;;;;103.10;2227.20;;;;;;5072758;28;19916;-75
2021/12/16 03:20:44;;;;;;;;;;;103.00;2227.20;;;;;;5068748;28;20348;-75
2021/12/16 03:25:58;;;;;;;;;;;103.10;2227.20;;;;;;5072914;28;19970;-75
2021/12/16 03:36:48;;;;;;;;;;;103.10;2227.20;;;;;;5072254;28;20277;-77
2021/12/16 03:39:15;;;;;;;;;;;103.00;2227.20;;;;;;5073563;28;20336;-75
2021/12/16 03:41:40;;;;;;;;;;;102.80;2227.20;;;;;;5071259;28;19904;-77
2021/12/16 03:44:10;;;;;;;;;;;102.90;2227.20;;;;;;5071478;28;20362;-75
2021/12/16 03:46:38;;;;;;;;;;;103.00;2227.20;;;;;;5068104;28;19905;-75
2021/12/16 03:49:17;;;;;;;;;;;102.90;2227.20;;;;;;5062386;28;19908;-75
2021/12/16 03:51:51;;;;;;;;;;;103.10;2227.20;;;;;;5070520;28;19905;-75
2021/12/16 03:54:23;;;;;;;;;;;103.20;2227.20;;;;;;5071201;28;19912;-75
2021/12/16 03:56:49;;;;;;;;;;;103.20;2227.20;;;;;;5072670;28;20360;-76
2021/12/16 03:59:19;;;;;;;;;;;103.20;2227.20;;;;;;5071366;28;19934;-75
2021/12/16 04:01:45;;;;;;;;;;;103.20;2227.20;;;;;;5070404;28;19916;-76
2021/12/16 04:04:10;;;;;;;;;;;103.00;2227.20;;;;;;5071689;28;19908;-77
2021/12/16 04:06:37;;;;;;;;;;;102.70;2227.20;;;;;;5072103;28;19904;-76
2021/12/16 04:09:07;;;;;;;;;;;102.90;2227.20;;;;;;5072428;28;19983;-77
2021/12/16 04:11:39;;;;;;;;;;;103.00;2227.20;;;;;;5070974;28;19905;-75
2021/12/16 04:14:06;;;;;;;;;;;103.10;2227.20;;;;;;5068838;28;19908;-77
2021/12/16 04:16:40;;;;;;;;;;;103.10;2227.20;;;;;;5070790;28;19939;-75
2021/12/16 04:19:09;;;;;;;;;;;103.10;2227.20;;;;;;5057358;28;19920;-77
2021/12/16 04:21:46;;;;;;;;;;;103.30;2227.20;;;;;;5050611;28;19908;-75
2021/12/16 04:24:12;;;;;;;;;;;103.10;2227.20;;;;;;5069165;28;20281;-75
2021/12/16 04:26:38;;;;;;;;;;;103.30;2227.20;;;;;;5072135;28;19915;-76
2021/12/16 04:29:05;;;;;;;;;;;103.30;2227.20;;;;;;5070885;28;19904;-75
2021/12/16 04:31:31;;;;;;;;;;;103.30;2227.20;;;;;;5072278;28;19911;-77
2021/12/16 04:33:57;;;;;;;;;;;128.00;2252.80;;;;;;5070548;28;19965;-76
2021/12/16 04:36:22;;;;;;;;;;;128.10;2252.80;;;;;;5072025;28;19912;-75
2021/12/16 04:38:48;;;;;;;;;;;128.10;2252.80;;;;;;5070742;28;19904;-75
2021/12/16 04:41:15;;;;;;;;;;;128.10;2252.80;;;;;;5070772;28;19904;-75
2021/12/16 04:43:44;;;;;;;;;;;128.20;2252.80;;;;;;5072402;28;19940;-77
2021/12/16 04:46:12;;;;;;;;;;;128.20;2252.80;;;;;;5070516;28;19908;-75
2021/12/16 04:48:39;;;;;;;;;;;128.20;2252.80;;;;;;5072303;28;19923;-76
2021/12/16 04:51:05;;;;;;;;;;;128.30;2252.80;;;;;;5073395;28;19969;-75
2021/12/16 04:53:31;;;;;;;;;;;128.30;2252.80;;;;;;5082199;28;20262;-75
2021/12/16 04:55:56;;;;;;;;;;;128.20;2252.80;;;;;;5083461;28;19920;-75
2021/12/16 04:58:22;;;;;;;;;;;128.20;2252.80;;;;;;5083133;28;19904;-75
2021/12/16 05:00:49;;;;;;;;;;;128.10;2252.80;;;;;;5081973;28;20409;-75
2021/12/16 05:03:14;;;;;;;;;;;128.30;2252.80;;;;;;5079879;28;19927;-77
2021/12/16 05:05:40;;;;;;;;;;;128.30;2252.80;;;;;;5081833;28;20353;-75
2021/12/16 05:08:05;;;;;;;;;;;128.40;2252.80;;;;;;5079891;28;19970;-75
2021/12/16 05:10:31;;;;;;;;;;;128.40;2252.80;;;;;;5080670;28;20374;-77
2021/12/16 05:12:59;;;;;;;;;;;128.40;2252.80;;;;;;5081246;28;19908;-77
2021/12/16 05:15:29;;;;;;;;;;;128.20;2252.80;;;;;;5083136;28;20373;-75
2021/12/16 05:17:56;;;;;;;;;;;128.00;2252.80;;;;;;5083318;28;19916;-75
2021/12/16 05:20:30;;;;;;;;;;;128.20;2252.80;;;;;;5080193;28;19913;-76
2021/12/16 05:28:22;;;;;;;;;;;128.10;2252.80;;;;;;5084542;28;19975;-75
2021/12/16 05:30:49;;;;;;;;;;;103.30;2227.20;;;;;;5083007;28;19961;-75
2021/12/16 05:33:15;;;;;;;;;;;103.20;2227.20;;;;;;5085900;28;20269;-77
2021/12/16 05:35:41;;;;;;;;;;;128.00;2252.80;;;;;;5083841;28;19916;-77
2021/12/16 05:38:07;;;;;;;;;;;128.00;2252.80;;;;;;5084753;28;19908;-76
2021/12/16 05:40:33;;;;;;;;;;;128.00;2252.80;;;;;;5083726;28;19904;-75
2021/12/16 05:43:01;;;;;;;;;;;103.30;2227.20;;;;;;5084346;28;19919;-76
2021/12/16 05:45:27;;;;;;;;;;;128.10;2252.80;;;;;;5084451;28;19904;-75
2021/12/16 05:47:53;;;;;;;;;;;103.00;2227.20;;;;;;5084785;28;20371;-77
2021/12/16 05:50:19;;;;;;;;;;;103.30;2227.20;;;;;;5086143;28;19920;-76
2021/12/16 05:52:45;;;;;;;;;;;103.20;2227.20;;;;;;5083011;28;19911;-75
2021/12/16 05:55:12;;;;;;;;;;;103.30;2227.20;;;;;;5084862;28;19912;-75
2021/12/16 05:57:38;;;;;;;;;;;103.30;2227.20;;;;;;5085739;28;19912;-75
2021/12/16 06:00:05;;;;;;;;;;;103.30;2227.20;;;;;;5082166;28;19927;-75
2021/12/16 06:02:30;;;;;;;;;;;128.00;2252.80;;;;;;5083860;28;19908;-75
2021/12/16 06:04:56;;;;;;;;;;;128.10;2252.80;;;;;;5083916;28;20068;-75
2021/12/16 06:07:21;;;;;;;;;;;128.00;2252.80;;;;;;5082476;28;19995;-77
2021/12/16 06:09:47;;;;;;;;;;;103.30;2227.20;;;;;;5100951;28;19914;-75
2021/12/16 06:12:14;;;;;;;;;;;128.10;2252.80;;;;;;5084698;28;19905;-77
2021/12/16 06:14:50;;;;;;;;;;;128.00;2252.80;;;;;;5081527;28;20015;-75
2021/12/16 06:28:01;;;;;;;;;;;103.30;2227.20;;;;;;5084571;28;19984;-76
2021/12/16 06:30:28;;;;;;;;;;;103.30;2227.20;;;;;;5080854;28;20058;-75
2021/12/16 06:32:55;;;;;;;;;;;103.30;2227.20;;;;;;5085362;28;19962;-78
2021/12/16 06:35:20;;;;;;;;;;;103.30;2227.20;;;;;;5077465;28;19920;-76
2021/12/16 06:37:46;;;;;;;;;;;102.80;2227.20;;;;;;5073852;28;20425;-77
2021/12/16 06:40:12;;;;;;;;;;;102.80;2227.20;;;;;;5083937;28;19904;-77
2021/12/16 06:42:40;;;;;;;;;;;102.70;2227.20;;;;;;5081905;28;20245;-75
2021/12/16 06:45:12;;;;;;;;;;;102.80;2227.20;;;;;;5080517;28;19905;-76
2021/12/16 06:48:04;;;;;;;;;;;103.00;2227.20;;;;;;5081771;28;19919;-75
2021/12/16 06:50:38;;;;;;;;;;;103.10;2227.20;;;;;;5084577;28;20274;-76
2021/12/16 06:53:05;;;;;;;;;;;103.30;2227.20;;;;;;5081248;28;19905;-76
2021/12/16 06:58:06;;;;;;;;;;;103.30;2227.20;;;;;;5084157;28;19972;-74
2021/12/16 07:00:39;;;;;;;;;;;103.30;2227.20;;;;;;5081569;28;19904;-77
2021/12/16 07:03:06;;;;;;;;;;;103.10;2227.20;;;;;;5080739;28;19904;-74
2021/12/16 07:05:36;;;;;;;;;;;103.00;2227.20;;;;;;5082147;28;19913;-79
2021/12/16 07:08:03;;;;;;;;;;;103.30;2227.20;;;;;;5081980;28;19912;-75
2021/12/16 07:10:29;;;;;;;;;;;128.10;2252.80;;;;;;5085906;28;19947;-75
2021/12/16 07:12:56;;;;;;;;;;;128.00;2252.80;;;;;;5094514;28;19904;-75
2021/12/16 07:15:26;;;;;;;;;;;103.00;2227.20;;;;;;5074567;28;20284;-77
2021/12/16 07:17:53;;;;;;;;;;;128.10;2252.80;;;;;;5072734;28;19995;-75
2021/12/16 07:20:20;;;;;;;;;;;128.00;2252.80;;;;;;5071651;28;19915;-76
2021/12/16 07:22:46;;;;;;;;;;;128.30;2252.80;;;;;;5071254;28;19915;-77
2021/12/16 07:25:11;;;;;;;;;;;128.30;2252.80;;;;;;5081525;28;19904;-79
2021/12/16 07:27:37;;;;;;;;;;;128.20;2252.80;;;;;;5082106;28;19973;-78
2021/12/16 07:30:04;;;;;;;;;;;128.10;2252.80;;;;;;5082692;28;19904;-78
2021/12/16 07:32:30;;;;;;;;;;;128.20;2252.80;;;;;;5084963;28;20353;-74
2021/12/16 07:34:55;;;;;;;;;;;128.30;2252.80;;;;;;5093634;28;19919;-75
2021/12/16 07:37:21;;;;;;;;;;;128.30;2252.80;;;;;;5083898;28;20342;-77
2021/12/16 07:39:49;;;;;;;;;;;128.20;2252.80;;;;;;5073132;28;19991;-79
2021/12/16 07:42:23;;;;;;;;;;;128.20;2252.80;;;;;;5073326;28;19926;-79
2021/12/16 07:44:48;;;;;;;;;;;128.10;2252.80;;;;;;5091385;28;19931;-76
2021/12/16 07:47:14;;;;;;;;;;;128.20;2252.80;;;;;;5093184;28;20349;-77
2021/12/16 07:49:41;;;;;;;;;;;128.30;2252.80;;;;;;5093423;28;19908;-75
2021/12/16 07:52:08;;;;;;;;;;;128.20;2252.80;;;;;;5093252;28;19943;-74
2021/12/16 07:54:34;;;;;;;;;;;128.30;2252.80;;;;;;5078036;28;20250;-80
2021/12/16 07:57:00;;;;;;;;;;;128.40;2252.80;;;;;;5080007;28;19934;-75
2021/12/16 07:59:27;;;;;;;;;;;128.00;2252.80;;;;;;5080964;28;19950;-74
2021/12/16 08:01:53;;;;;;;;;;;128.10;2252.80;;;;;;5073048;28;19911;-74
2021/12/16 08:04:21;;;;;;;;;;;128.30;2252.80;;;;;;5075300;28;19914;-75
2021/12/16 08:06:48;;;;;;;;;;;128.30;2252.80;;;;;;5079506;28;19979;-75
2021/12/16 08:09:14;;;;;;;;;;;128.10;2252.80;;;;;;5083897;28;19911;-78
2021/12/16 08:11:40;;;;;;;;;;;128.00;2252.80;;;;;;5082686;28;20288;-75
2021/12/16 08:14:06;;;;;;;;;;;103.30;2227.20;;;;;;5081837;28;19908;-74
2021/12/16 08:16:32;;;;;;;;;;;128.20;2252.80;;;;;;5076755;28;19904;-78
2021/12/16 08:18:58;;;;;;;;;;;103.30;2227.20;;;;;;5072274;28;19932;-75
2021/12/16 08:21:28;;;;;;;;;;;128.20;2252.80;;;;;;5071456;28;19904;-77
2021/12/16 08:23:57;;;;;;;;;;;128.10;2252.80;;;;;;5074827;28;20277;-75
2021/12/16 08:26:24;;;;;;;;;;;103.30;2227.20;;;;;;5070795;28;20365;-74
2021/12/16 08:28:49;;;;;;;;;;;128.10;2252.80;;;;;;5072472;28;19904;-74
2021/12/16 08:31:15;;;;;;;;;;;128.20;2252.80;;;;;;5072606;28;20246;-75
2021/12/16 08:33:41;;;;;;;;;;;128.10;2252.80;;;;;;5072507;28;19905;-74
2021/12/16 08:36:07;;;;;;;;;;;128.40;2252.80;;;;;;5072387;28;19999;-75
2021/12/16 08:38:34;;;;;;;;;;;128.50;2252.80;;;;;;5072586;28;20317;-75
2021/12/16 08:41:02;;;;;;;;;;;128.80;2252.80;;;;;;5072495;28;19908;-75
2021/12/16 08:43:28;;;;;;;;;;;128.90;2252.80;;;;;;5072760;28;19908;-76
2021/12/16 08:45:54;;;;;;;;;;;128.60;2252.80;;;;;;5072417;28;19930;-76
2021/12/16 08:48:19;;;;;;;;;;;153.70;2252.80;;;;;;5072371;28;20324;-77
2021/12/16 08:50:48;;;;;;;;;;;128.90;2252.80;;;;;;5075050;28;19909;-75
2021/12/16 08:53:14;;;;;;;;;;;128.80;2252.80;;;;;;5076281;28;19958;-78
2021/12/16 08:55:41;;;;;;;;;;;153.70;2252.80;;;;;;5076534;28;19955;-74
2021/12/16 08:58:07;;;;;;;;;;;153.60;2252.80;;;;;;5076308;28;19908;-76
2021/12/16 09:00:36;;;;;;;;;;;153.80;2252.80;;;;;;5076585;28;19911;-75
2021/12/16 09:03:02;;;;;;;;;;;153.80;2252.80;;;;;;5074979;28;19905;-79
2021/12/16 09:05:28;;;;;;;;;;;153.60;2252.80;;;;;;5076621;28;19915;-74
2021/12/16 09:07:54;;;;;;;;;;;153.80;2252.80;;;;;;5076168;28;19956;-80
2021/12/16 09:10:23;;;;;;;;;;;153.90;2252.80;;;;;;5076482;28;19954;-79
2021/12/16 09:15:16;;;;;;;;;;;153.90;2252.80;;;;;;5075788;28;19963;-76
2021/12/16 09:17:42;;;;;;;;;;;153.80;2252.80;;;;;;5074893;28;19920;-75
2021/12/16 09:20:08;;;;;;;;;;;154.00;2252.80;;;;;;5075857;28;19915;-74
2021/12/16 09:22:34;;;;;;;;;;;154.10;2252.80;;;;;;5075723;28;19911;-76
2021/12/16 09:25:00;;;;;;;;;;;153.80;2252.80;;;;;;5074448;28;19904;-74
2021/12/16 09:27:27;;;;;;;;;;;153.90;2252.80;;;;;;5074735;28;19911;-77
2021/12/16 09:29:53;;;;;;;;;;;154.00;2252.80;;;;;;5075747;28;19912;-75
2021/12/16 09:32:18;;;;;;;;;;;154.20;2252.80;;;;;;5074492;28;19908;-74
2021/12/16 09:34:45;;;;;;;;;;;154.30;2252.80;;;;;;5075459;28;19918;-75
2021/12/16 09:37:10;;;;;;;;;;;154.30;2252.80;;;;;;5075578;28;19911;-76
2021/12/16 09:39:37;;;;;;;;;;;154.30;2252.80;;;;;;5076956;28;19908;-77
2021/12/16 09:42:06;;;;;;;;;;;154.30;2252.80;;;;;;5078053;28;20365;-74
2021/12/16 09:44:31;;;;;;;;;;;154.00;2252.80;;;;;;5074436;28;19911;-75
2021/12/16 09:46:58;;;;;;;;;;;154.20;2252.80;;;;;;5075378;28;19912;-78
2021/12/16 09:49:23;;;;;;;;;;;154.10;2252.80;;;;;;5074162;28;19908;-78
2021/12/16 09:51:51;;;;;;;;;;;154.20;2252.80;;;;;;5085027;28;19908;-75
2021/12/16 09:54:19;;;;;;;;;;;154.30;2252.80;;;;;;5080714;28;19912;-77
2021/12/16 09:56:47;;;;;;;;;;;154.20;2252.80;;;;;;5081803;28;19912;-79
2021/12/16 09:59:14;;;;;;;;;;;154.20;2252.80;;;;;;5078074;28;19981;-77
2021/12/16 10:01:40;;;;;;;;;;;154.30;2252.80;;;;;;5072922;28;19999;-74
2021/12/16 10:04:07;;;;;;;;;;;154.20;2252.80;;;;;;5075038;28;19904;-76
2021/12/16 10:06:35;;;;;;;;;;;154.20;2252.80;;;;;;5075371;28;19911;-78
2021/12/16 10:09:04;;;;;;;;;;;154.20;2252.80;;;;;;5081847;28;19960;-74
2021/12/16 10:11:31;;;;;;;;;;;154.20;2252.80;;;;;;5055379;28;19905;-78
2021/12/16 10:19:11;;;;;;;;;;;154.40;2252.80;;;;;;5054662;28;20062;-76
2021/12/16 10:21:38;;;;;;;;;;;154.30;2252.80;;;;;;5064993;28;19949;-74
2021/12/16 10:24:04;;;;;;;;;;;154.40;2252.80;;;;;;5085244;28;19904;-77
2021/12/16 10:26:30;;;;;;;;;;;179.20;2252.80;;;;;;5083707;28;19910;-77
2021/12/16 10:28:57;;;;;;;;;;;179.30;2252.80;;;;;;5084333;28;20284;-78
2021/12/16 10:31:26;;;;;;;;;;;179.40;2252.80;;;;;;5083904;28;19904;-77
2021/12/16 10:33:52;;;;;;;;;;;179.40;2252.80;;;;;;5075651;28;19965;-78
2021/12/16 10:36:17;;;;;;;;;;;179.50;2252.80;;;;;;5082307;28;19916;-77
2021/12/16 10:38:59;;;;;;;;;;;179.30;2252.80;;;;;;5085307;28;19904;-79
2021/12/16 10:41:46;;;;;;;;;;;179.30;2252.80;;;;;;5085923;28;19904;-77
2021/12/16 10:44:14;;;;;;;;;;;179.40;2252.80;;;;;;5081901;28;19904;-76
2021/12/16 10:46:43;;;;;;;;;;;179.40;2252.80;;;;;;5083099;28;19904;-74
2021/12/16 10:49:16;;;;;;;;;;;179.40;2252.80;;;;;;5080940;28;19912;-79
2021/12/16 10:51:43;;;;;;;;;;;179.50;2252.80;;;;;;5094357;28;19918;-78
2021/12/16 10:54:15;;;;;;;;;;;179.30;2252.80;;;;;;5094969;28;19904;-79
2021/12/16 10:56:46;;;;;;;;;;;179.20;2252.80;;;;;;5094723;28;19908;-74
2021/12/16 10:59:21;;;;;;;;;;;179.20;2252.80;;;;;;5092968;28;19904;-74
2021/12/16 11:01:49;;;;;;;;;;;154.50;2252.80;;;;;;5093167;28;19904;-79
2021/12/16 11:04:21;;;;;;;;;;;179.30;2252.80;;;;;;5110072;28;19908;-79
2021/12/16 11:07:10;;;;;;;;;;;179.40;2252.80;;;;;;5093300;28;19911;-78
2021/12/16 11:09:36;;;;;;;;;;;179.30;2252.80;;;;;;5032269;28;19905;-79
2021/12/16 11:12:16;;;;;;;;;;;154.50;2252.80;;;;;;5011957;28;20318;-79
2021/12/16 11:14:44;;;;;;;;;;;179.30;2252.80;;;;;;5021193;28;19975;-75
2021/12/16 11:17:11;;;;;;;;;;;179.30;2252.80;;;;;;5019911;28;19947;-77
2021/12/16 11:19:39;;;;;;;;;;;179.50;2252.80;;;;;;5021679;28;19924;-74
2021/12/16 11:22:05;;;;;;;;;;;179.50;2252.80;;;;;;4995387;28;19906;-74
2021/12/16 11:24:31;;;;;;;;;;;179.60;2252.80;;;;;;5011634;28;19948;-76
2021/12/16 11:26:56;;;;;;;;;;;179.50;2252.80;;;;;;5011983;28;20370;-76
2021/12/16 11:29:30;;;;;;;;;;;179.50;2252.80;;;;;;4995328;28;19925;-76
2021/12/16 11:31:56;;;;;;;;;;;179.50;2252.80;;;;;;5011795;28;19913;-74
2021/12/16 11:34:22;;;;;;;;;;;179.50;2252.80;;;;;;5016415;28;20394;-76
2021/12/16 11:36:53;;;;;;;;;;;179.40;2252.80;;;;;;5020402;28;19956;-75
2021/12/16 11:39:18;;;;;;;;;;;179.40;2252.80;;;;;;5017981;28;19905;-75
2021/12/16 11:41:46;;;;;;;;;;;179.30;2252.80;;;;;;5020936;28;20366;-76
2021/12/16 11:44:17;;;;;;;;;;;179.30;2252.80;;;;;;5030111;28;19963;-75
2021/12/16 11:46:46;;;;;;;;;;;179.20;2252.80;;;;;;5065736;28;19948;-74
2021/12/16 11:49:14;;;;;;;;;;;179.40;2252.80;;;;;;5092463;28;19947;-74
2021/12/16 11:51:45;;;;;;;;;;;179.40;2252.80;;;;;;5093233;28;20315;-74
2021/12/16 11:54:33;;;;;;;;;;;179.30;2252.80;;;;;;5091922;28;19907;-76
2021/12/16 11:57:11;;;;;;;;;;;179.30;2252.80;;;;;;5081349;28;19916;-74
2021/12/16 11:59:39;;;;;;;;;;;179.30;2252.80;;;;;;5075257;28;19911;-76
2021/12/16 12:10:59;;;;;;;;;;;179.40;2252.80;;;;;;5143244;22;19931;-77
2021/12/16 12:13:26;;;;;;;;;;;179.20;2252.80;;;;;;5036495;28;19923;-78
2021/12/16 12:15:57;;;;;;;;;;;179.30;2252.80;;;;;;5041135;28;19927;-76
2021/12/16 12:18:38;;;;;;;;;;;179.40;2252.80;;;;;;5063893;28;20387;-77
2021/12/16 12:21:22;;;;;;;;;;;179.40;2252.80;;;;;;5044093;28;19905;-75
2021/12/16 12:23:50;;;;;;;;;;;179.30;2252.80;;;;;;5062265;28;20357;-76
2021/12/16 12:26:16;;;;;;;;;;;179.30;2252.80;;;;;;5046082;28;19904;-75
2021/12/16 12:28:43;;;;;;;;;;;154.50;2252.80;;;;;;5048639;28;19912;-79
2021/12/16 12:31:09;;;;;;;;;;;154.50;2252.80;;;;;;5058620;28;19905;-75
2021/12/16 12:33:35;;;;;;;;;;;154.50;2252.80;;;;;;5059579;28;19965;-77
2021/12/16 12:36:01;;;;;;;;;;;179.20;2252.80;;;;;;5062509;28;19962;-78
2021/12/16 12:38:28;;;;;;;;;;;154.50;2252.80;;;;;;5043331;28;20276;-75
2021/12/16 12:40:53;;;;;;;;;;;179.20;2252.80;;;;;;5044376;28;20300;-75
2021/12/16 12:43:19;;;;;;;;;;;179.20;2252.80;;;;;;5068636;28;19912;-77
2021/12/16 12:45:45;;;;;;;;;;;179.20;2252.80;;;;;;5054627;28;19904;-76
2021/12/16 12:48:12;;;;;;;;;;;179.20;2252.80;;;;;;5061787;28;20014;-82
2021/12/16 12:50:40;;;;;;;;;;;179.30;2252.80;;;;;;5045205;28;19991;-75
2021/12/16 12:53:11;;;;;;;;;;;179.30;2252.80;;;;;;5061482;28;19927;-78
2021/12/16 12:55:36;;;;;;;;;;;179.40;2252.80;;;;;;5052788;28;19912;-75
2021/12/16 12:58:13;;;;;;;;;;;179.40;2252.80;;;;;;5034500;28;19991;-75
2021/12/16 13:00:38;;;;;;;;;;;179.40;2252.80;;;;;;5052341;28;19905;-76
2021/12/16 13:03:04;;;;;;;;;;;179.50;2252.80;;;;;;5034306;28;19915;-77
2021/12/16 13:05:30;;;;;;;;;;;179.40;2252.80;;;;;;5052263;28;19912;-78
2021/12/16 13:08:00;;;;;;;;;;;179.40;2252.80;;;;;;5034549;28;19908;-74
2021/12/16 13:10:31;;;;;;;;;;;179.40;2252.80;;;;;;5051989;28;19950;-75
2021/12/16 13:15:54;;;;;;;;;;;179.50;2252.80;;;;;;5052254;28;19974;-79
2021/12/16 13:26:43;;;;;;;;;;;154.50;2252.80;;;;;;5058054;28;20357;-75
2021/12/16 13:29:27;;;;;;;;;;;154.50;2252.80;;;;;;5040150;28;19955;-74
2021/12/16 13:32:10;;;;;;;;;;;179.20;2252.80;;;;;;5040179;28;19968;-76
2021/12/16 13:34:36;;;;;;;;;;;179.40;2252.80;;;;;;5042502;28;19913;-76
2021/12/16 13:37:23;;;;;;;;;;;179.50;2252.80;;;;;;5059716;28;19919;-75
2021/12/16 13:39:53;;;;;;;;;;;179.80;2252.80;;;;;;5053085;28;19916;-72
2021/12/16 13:42:19;;;;;;;;;;;179.70;2252.80;;;;;;5036371;28;19911;-75
2021/12/16 13:44:52;;;;;;;;;;;179.90;2252.80;;;;;;5054008;28;19915;-74
2021/12/16 14:01:38;;;;;;;;;;;180.10;2252.80;;;;;;4973420;28;19965;-76
2021/12/16 14:10:18;;;;;;;;;;;180.00;2252.80;;;;;;4961715;28;19965;-75
2021/12/16 14:16:01;;;;;;;;;;;180.00;2252.80;;;;;;4951402;29;19941;-75
2021/12/16 14:24:28;;;;;;;;;;;180.00;2252.80;;;;;;4953809;29;19956;-77
2021/12/16 14:27:18;;;;;;;;;;;179.70;2252.80;;;;;;4981758;28;20000;-76
2021/12/16 14:34:59;;;;;;;;;;;179.80;2252.80;;;;;;5031258;28;19917;-74
2021/12/16 14:37:35;;;;;;;;;;;179.80;2252.80;;;;;;5008936;28;19916;-74
2021/12/16 14:40:16;;;;;;;;;;;179.70;2252.80;;;;;;5008437;28;20317;-74
2021/12/16 14:42:49;;;;;;;;;;;179.70;2252.80;;;;;;5013371;28;19913;-75
2021/12/16 14:50:18;;;;;;;;;;;179.70;2252.80;;;;;;5031489;28;19913;-74
2021/12/16 14:52:44;;;;;;;;;;;179.70;2252.80;;;;;;5043468;28;19947;-74
2021/12/16 14:55:11;;;;;;;;;;;179.70;2252.80;;;;;;5052929;28;19960;-74
2021/12/16 14:57:39;;;;;;;;;;;179.70;2252.80;;;;;;5053632;28;19911;-74
2021/12/16 15:00:27;;;;;;;;;;;179.60;2252.80;;;;;;5052964;28;19909;-75
2021/12/16 15:03:01;;;;;;;;;;;179.50;2252.80;;;;;;5034152;28;19913;-73
2021/12/16 15:05:32;;;;;;;;;;;179.40;2252.80;;;;;;5046589;28;19913;-75
2021/12/16 15:08:21;;;;;;;;;;;179.40;2252.80;;;;;;5050526;28;20262;-78
2021/12/16 15:10:47;;;;;;;;;;;179.50;2252.80;;;;;;5046255;28;19991;-75
2021/12/16 15:13:22;;;;;;;;;;;179.70;2252.80;;;;;;5019392;28;20492;-75
2021/12/16 15:16:13;;;;;;;;;;;179.60;2252.80;;;;;;5031431;28;19995;-75
2021/12/16 15:38:47;;;;;;;;;;;179.60;2252.80;;;;;;4987880;28;19944;-74
2021/12/16 15:43:54;;;;;;;;;;;179.50;2252.80;;;;;;4986880;28;20346;-74
2021/12/16 15:46:20;;;;;;;;;;;179.70;2252.80;;;;;;4990194;28;20316;-75
2021/12/16 15:48:47;;;;;;;;;;;179.60;2252.80;;;;;;4990523;28;19961;-74
2021/12/16 15:51:14;;;;;;;;;;;179.40;2252.80;;;;;;4990169;28;20359;-75
2021/12/16 15:53:41;;;;;;;;;;;179.50;2252.80;;;;;;4991560;28;19909;-76
2021/12/16 15:56:12;;;;;;;;;;;179.40;2252.80;;;;;;4990176;28;19924;-74
2021/12/16 15:58:40;;;;;;;;;;;179.50;2252.80;;;;;;4989368;28;20346;-75
2021/12/16 16:01:11;;;;;;;;;;;179.40;2252.80;;;;;;4990364;28;19910;-75
2021/12/16 16:03:37;;;;;;;;;;;179.40;2252.80;;;;;;4984827;28;19933;-74
2021/12/16 16:06:05;;;;;;;;;;;179.30;2252.80;;;;;;4990136;28;20008;-74
2021/12/16 16:08:32;;;;;;;;;;;179.40;2252.80;;;;;;5007960;28;19955;-74
2021/12/16 16:11:05;;;;;;;;;;;179.40;2252.80;;;;;;5051760;28;19983;-75
2021/12/16 16:13:36;;;;;;;;;;;179.40;2252.80;;;;;;5033051;28;20414;-75
2021/12/16 16:16:03;;;;;;;;;;;179.40;2252.80;;;;;;5052401;28;19959;-74
2021/12/16 16:20:57;;;;;;;;;;;179.40;2252.80;;;;;;5052607;28;20015;-76
2021/12/16 16:23:24;;;;;;;;;;;179.40;2252.80;;;;;;5034368;28;19976;-73
2021/12/16 16:25:50;;;;;;;;;;;179.40;2252.80;;;;;;5051734;28;19908;-75
2021/12/16 16:28:16;;;;;;;;;;;179.30;2252.80;;;;;;5044830;28;19913;-75
2021/12/16 16:30:42;;;;;;;;;;;179.40;2252.80;;;;;;5032777;28;19916;-74
2021/12/16 16:33:09;;;;;;;;;;;179.40;2252.80;;;;;;5033494;28;20066;-75
2021/12/16 16:35:36;;;;;;;;;;;179.40;2252.80;;;;;;5039965;28;19913;-75
2021/12/16 16:38:09;;;;;;;;;;;179.40;2252.80;;;;;;5027978;28;19916;-76
2021/12/16 16:40:40;;;;;;;;;;;179.40;2252.80;;;;;;5051096;28;20250;-73
2021/12/16 16:43:23;;;;;;;;;;;179.40;2252.80;;;;;;5049190;28;19994;-75
2021/12/16 16:45:50;;;;;;;;;;;179.40;2252.80;;;;;;5051408;28;19904;-75
2021/12/16 16:48:29;;;;;;;;;;;179.50;2252.80;;;;;;5052156;28;19905;-74
2021/12/16 16:51:05;;;;;;;;;;;179.40;2252.80;;;;;;5016617;28;20306;-74
2021/12/16 16:53:31;;;;;;;;;;;179.40;2252.80;;;;;;5019332;28;19948;-75
2021/12/16 16:55:57;;;;;;;;;;;179.40;2252.80;;;;;;5033976;28;19951;-75
2021/12/16 16:58:23;;;;;;;;;;;179.40;2252.80;;;;;;5052133;28;19999;-74
2021/12/16 17:00:52;;;;;;;;;;;179.50;2252.80;;;;;;5051095;28;19908;-75
2021/12/16 17:03:19;;;;;;;;;;;179.50;2252.80;;;;;;5051492;28;19904;-74
2021/12/16 17:05:47;;;;;;;;;;;179.50;2252.80;;;;;;5051626;28;20354;-74
2021/12/16 17:08:15;;;;;;;;;;;179.50;2252.80;;;;;;5051311;28;20007;-74
2021/12/16 17:10:47;;;;;;;;;;;179.50;2252.80;;;;;;5033433;28;19909;-74
2021/12/16 17:13:18;;;;;;;;;;;179.50;2252.80;;;;;;5054910;28;19925;-75
2021/12/16 17:18:22;;;;;;;;;;;179.50;2252.80;;;;;;5055914;28;20377;-75
2021/12/16 17:20:49;;;;;;;;;;;179.60;2252.80;;;;;;5064788;28;19904;-74
2021/12/16 17:23:15;;;;;;;;;;;179.60;2252.80;;;;;;5066227;28;19909;-76
2021/12/16 17:25:41;;;;;;;;;;;179.60;2252.80;;;;;;5064148;28;19915;-75
2021/12/16 17:28:06;;;;;;;;;;;179.60;2252.80;;;;;;5065052;28;19905;-74
2021/12/16 17:30:34;;;;;;;;;;;179.60;2252.80;;;;;;5065557;28;19904;-74
2021/12/16 17:33:00;;;;;;;;;;;179.70;2252.80;;;;;;5061257;28;19905;-75
2021/12/16 17:35:40;;;;;;;;;;;179.40;2252.80;;;;;;5065388;28;20015;-74
2021/12/16 17:38:09;;;;;;;;;;;179.50;2252.80;;;;;;5062821;28;19904;-75
2021/12/16 17:40:41;;;;;;;;;;;179.70;2252.80;;;;;;5061063;28;19917;-75
2021/12/16 17:43:09;;;;;;;;;;;179.70;2252.80;;;;;;5054890;28;19909;-73
2021/12/16 17:45:57;;;;;;;;;;;179.70;2252.80;;;;;;5063135;28;19999;-75
2021/12/16 17:48:27;;;;;;;;;;;179.70;2252.80;;;;;;4977750;28;19916;-75
2021/12/16 17:50:54;;;;;;;;;;;179.70;2252.80;;;;;;4993041;28;19952;-74
2021/12/16 17:53:20;;;;;;;;;;;179.80;2252.80;;;;;;4990883;28;19913;-75